»·PEaware :: N122SQ KFMN-KAPA

N122SQ :: KFMN-KAPA

FLIGHT INFORMATION

Flight Status: Arrived
Operator: Privately registered:
United States
More flights under this callsign
Pilot: Gabor H. (24209)
Aircraft: CIRRUS SR-22 TURBO
(S22T)
More flights by this aircraft type
Origin: KFMN Four Corners Regl
United States
Destination: KAPA Centennial
United States
More flights between these airports :: More routes between these airports
Route: ANK
File this flight plan on PilotEdge
Remarks:
Altitude:
(Current/Filed)
15,500ft
Speed:
(Current/Filed)
160kts
Departed: 27-Sep-23 07:08 AM
Arrived: 27-Sep-23 08:31 AM
Distance/Time
Traveled:
233nm/1:23
Distance/Time
To Go:
Arrived

Flight Plot

Page will automatically refresh every two minutes.

Flight plan parsing failed; only flown route is shown


Map Options




Map Legend


Flown Route
Filed Route
Departure Airport
Arrival Airport
Navaid (VOR, NDB)
Fix

Horizontal Profiles

Position Reports

Time Latitude Longitude Heading Altitude Ground
Speed
27-Sep-23 06:51 36.739756 -108.224856 88 5505ft 0kts
27-Sep-23 06:52 36.739756 -108.224856 88 5505ft 0kts
27-Sep-23 06:53 36.739756 -108.224856 88 5505ft 0kts
27-Sep-23 06:54 36.739756 -108.224856 88 5505ft 0kts
27-Sep-23 06:55 36.739756 -108.224856 88 5505ft 0kts
27-Sep-23 06:56 36.739756 -108.224856 88 5505ft 0kts
27-Sep-23 06:57 36.739756 -108.224856 88 5505ft 0kts
27-Sep-23 06:58 36.739756 -108.224856 88 5505ft 0kts
27-Sep-23 06:59 36.739756 -108.224856 88 5505ft 0kts
27-Sep-23 07:00 36.739756 -108.224856 88 5505ft 0kts
27-Sep-23 07:01 36.739757 -108.224843 86 5505ft 1kts
27-Sep-23 07:02 36.740615 -108.227248 267 5505ft 13kts
27-Sep-23 07:03 36.739736 -108.233003 235 5505ft 18kts
27-Sep-23 07:04 36.739600 -108.236668 332 5505ft 9kts
27-Sep-23 07:05 36.740370 -108.238386 271 5505ft 12kts
27-Sep-23 07:06 36.740340 -108.239267 268 5505ft 4kts
27-Sep-23 07:07 36.741430 -108.222926 87 5618ft 123kts
27-Sep-23 07:08 36.749569 -108.180190 25 6695ft 144kts
27-Sep-23 07:09 36.789129 -108.172283 32 7844ft 147kts
27-Sep-23 07:10 36.820809 -108.139690 41 8950ft 150kts
27-Sep-23 07:11 36.852072 -108.104298 41 9964ft 154kts
27-Sep-23 07:12 36.884294 -108.067685 40 10951ft 159kts
27-Sep-23 07:13 36.917355 -108.030090 40 11927ft 162kts
27-Sep-23 07:14 36.950643 -107.992155 40 12924ft 163kts
27-Sep-23 07:15 36.984264 -107.953826 39 13881ft 164kts
27-Sep-23 07:16 37.018020 -107.915283 39 14803ft 165kts
27-Sep-23 07:17 37.052096 -107.876334 39 15587ft 172kts
27-Sep-23 07:18 37.088470 -107.834665 39 15581ft 177kts
27-Sep-23 07:19 37.124796 -107.792983 39 15583ft 177kts
27-Sep-23 07:20 37.161162 -107.751223 39 15583ft 177kts
27-Sep-23 07:21 37.197425 -107.709536 39 15583ft 177kts
27-Sep-23 07:22 37.233679 -107.667802 39 15583ft 177kts
27-Sep-23 07:23 37.269959 -107.625985 39 15583ft 177kts
27-Sep-23 07:24 37.306193 -107.584161 39 15583ft 177kts
27-Sep-23 07:25 37.342262 -107.542470 39 15583ft 177kts
27-Sep-23 07:26 37.378505 -107.500522 39 15586ft 176kts
27-Sep-23 07:27 37.414580 -107.458714 39 15595ft 176kts
27-Sep-23 07:28 37.450607 -107.416905 39 15604ft 176kts
27-Sep-23 07:29 37.486547 -107.375131 39 15615ft 176kts
27-Sep-23 07:30 37.522494 -107.333286 40 15621ft 176kts
27-Sep-23 07:31 37.558383 -107.291472 40 15633ft 176kts
27-Sep-23 07:32 37.594286 -107.249577 40 15636ft 176kts
27-Sep-23 07:33 37.629985 -107.207842 40 15637ft 175kts
27-Sep-23 07:34 37.665849 -107.165876 40 15637ft 175kts
27-Sep-23 07:35 37.701501 -107.124118 40 15640ft 176kts
27-Sep-23 07:36 37.737383 -107.081990 40 15636ft 176kts
27-Sep-23 07:37 37.773228 -107.039890 40 15639ft 176kts
27-Sep-23 07:38 37.808959 -106.997834 40 15651ft 175kts
27-Sep-23 07:39 37.844549 -106.955907 40 15663ft 175kts
27-Sep-23 07:40 37.880067 -106.913986 40 15676ft 174kts
27-Sep-23 07:41 37.915439 -106.872203 40 15688ft 174kts
27-Sep-23 07:42 37.950915 -106.830196 40 15692ft 174kts
27-Sep-23 07:43 37.986170 -106.788443 40 15690ft 173kts
27-Sep-23 07:44 38.021378 -106.746658 40 15691ft 174kts
27-Sep-23 07:45 38.056662 -106.704744 40 15693ft 174kts
27-Sep-23 07:46 38.092038 -106.662654 40 15691ft 174kts
27-Sep-23 07:47 38.127327 -106.620609 40 15692ft 174kts
27-Sep-23 07:48 38.162508 -106.578637 40 15692ft 174kts
27-Sep-23 07:49 38.197743 -106.536537 40 15694ft 174kts
27-Sep-23 07:50 38.233001 -106.494351 40 15697ft 174kts
27-Sep-23 07:51 38.268130 -106.452267 40 15701ft 174kts
27-Sep-23 07:52 38.303278 -106.410105 40 15703ft 174kts
27-Sep-23 07:53 38.338538 -106.367742 40 15709ft 174kts
27-Sep-23 07:54 38.373919 -106.325161 41 15709ft 175kts
27-Sep-23 07:55 38.409221 -106.282634 41 15709ft 175kts
27-Sep-23 07:56 38.444488 -106.240052 40 15710ft 175kts
27-Sep-23 07:57 38.479821 -106.197388 41 15711ft 175kts
27-Sep-23 07:58 38.515078 -106.154727 41 15710ft 175kts
27-Sep-23 07:59 38.550326 -106.111986 40 15710ft 175kts
27-Sep-23 08:00 38.585658 -106.069156 41 15703ft 175kts
27-Sep-23 08:01 38.621034 -106.026153 41 15694ft 175kts
27-Sep-23 08:02 38.656395 -105.983122 41 15681ft 176kts
27-Sep-23 08:03 38.691900 -105.939850 41 15681ft 176kts
27-Sep-23 08:04 38.727984 -105.895827 41 15549ft 179kts
27-Sep-23 08:05 38.764021 -105.851765 41 15488ft 179kts
27-Sep-23 08:06 38.800048 -105.807667 41 15462ft 178kts
27-Sep-23 08:07 38.835801 -105.763480 40 15463ft 178kts
27-Sep-23 08:08 38.871959 -105.719939 40 15463ft 178kts
27-Sep-23 08:09 38.908149 -105.676533 40 15464ft 178kts
27-Sep-23 08:10 38.944440 -105.632972 40 15466ft 178kts
27-Sep-23 08:11 38.979195 -105.591197 40 15468ft 179kts
27-Sep-23 08:12 39.012881 -105.550652 40 15470ft 179kts
27-Sep-23 08:13 39.046732 -105.509851 41 15472ft 179kts
27-Sep-23 08:14 39.081964 -105.467324 40 15472ft 179kts
27-Sep-23 08:15 39.118008 -105.423758 40 15473ft 180kts
27-Sep-23 08:16 39.154755 -105.379277 40 15391ft 185kts
27-Sep-23 08:17 39.194330 -105.331275 42 14551ft 203kts
27-Sep-23 08:18 39.235882 -105.280823 42 13638ft 206kts
27-Sep-23 08:19 39.277607 -105.230101 42 12725ft 206kts
27-Sep-23 08:20 39.321079 -105.177118 43 11777ft 206kts
27-Sep-23 08:21 39.365382 -105.123021 42 10805ft 203kts
27-Sep-23 08:22 39.409796 -105.067595 45 9747ft 199kts
27-Sep-23 08:23 39.448850 -105.014584 45 9066ft 196kts
27-Sep-23 08:24 39.486586 -104.963218 45 7859ft 193kts
27-Sep-23 08:25 39.521316 -104.915900 46 7291ft 181kts
27-Sep-23 08:26 39.558082 -104.877849 359 6810ft 171kts
27-Sep-23 08:27 39.596978 -104.876922 359 6801ft 144kts
27-Sep-23 08:28 39.607083 -104.853563 167 6293ft 100kts
27-Sep-23 08:29 39.580958 -104.851304 178 5889ft 78kts
27-Sep-23 08:30 39.574032 -104.849169 117 5887ft 14kts
27-Sep-23 08:31 39.572321 -104.842830 5 5887ft 11kts
27-Sep-23 08:32 39.573174 -104.843119 271 5887ft 0kts
27-Sep-23 08:33 39.573174 -104.843119 271 5887ft 0kts

Navigation Log

Ident Type
Flight plan parsing failed, navigation log unavailable